Terminal Aerodrome Forecast
Issued by NWS

Home | Current Version | Previous Version | Text Only | Print | Product List | Glossary On
Versions: 1 2 3 4 5 6 7 8 9 10 11 12 13 14 15
000
FTUS42 TJSJ 191100
TAFNCM
TAF
TNCM 191133Z 1912/2012 08009KT P6SM VCSH FEW020
     FM191300 11012KT P6SM VCSH SCT025 SCT070
     FM192300 10008KT P6SM FEW025 SCT070=

USA.gov is the U.S. government's official web portal to all federal, state and local government web resources and services.